Bookmark and Share
Track history (hours):
 

Alexander Maersk

Last reported at 2014-Apr-16 02:30 UTC. Time now 2014-Apr-16 19:14 UTC.
Position N 37°44' E 025°47'.

Length 155 m; draft 8.3 m.

Type: Ship (hazmat cat B). MMSI: 219470000.

NotesDate/timePositionNaut miles runAvg speedWind from/ knotsBaromVisibWave heightAir tempDewpointWater temp
2014-Apr-16 02:30N 37°44' E 025°47'1613.5
2014-Apr-16 01:19N 37°28' E 025°52'1013.5
2014-Apr-16 00:33N 37°19' E 025°58'1413.6
2014-Apr-15 23:32N 37°07' E 026°06'2613.3
2014-Apr-15 21:33N 36°45' E 026°26'1513.4
2014-Apr-15 20:27N 36°35' E 026°38'1513.1
2014-Apr-15 19:19N 36°24' E 026°51'1013.2
2014-Apr-15 18:33N 36°17' E 026°60'1313.3
2014-Apr-15 17:33N 36°08' E 027°12'1313.3
2014-Apr-15 16:33N 35°58' E 027°23'1613.0
2014-Apr-15 15:22N 35°47' E 027°36'  
2014-Apr-12 11:15N 31°23' E 032°17'0 0.0
2014-Apr-12 10:34N 31°23' E 032°17'0 0.0
2014-Apr-12 01:24N 31°23' E 032°17'0 0.0
2014-Apr-11 21:33N 31°23' E 032°17'  
2014-Apr-07 21:05N 36°15' E 027°01'31 8.5
2014-Apr-07 17:24N 36°38' E 026°35'8 8.9
2014-Apr-07 16:32N 36°43' E 026°28'9 8.9
2014-Apr-07 15:33N 36°49' E 026°21'11 8.5
2014-Apr-07 14:13N 36°58' E 026°12'6 8.5
2014-Apr-07 13:33N 37°03' E 026°08'1010.0
2014-Apr-07 12:33N 37°12' E 026°02'1211.5
2014-Apr-07 11:33N 37°22' E 025°55'1211.5
2014-Apr-07 10:33N 37°32' E 025°48'1211.1
2014-Apr-07 09:26N 37°43' E 025°41'1111.3
2014-Apr-07 08:25N 37°53' E 025°35'1113.0
2014-Apr-07 07:34N 38°03' E 025°28'11111.0
2014-Apr-06 21:31N 39°37' E 024°13'  

Dump ship's entire track history

sailing weather and tide predictions

Alexander Maersk — OZRC2 — position and weather